sensor_id;sensor_type;location;lat;lon;timestamp;P1;durP1;ratioP1;P2;durP2;ratioP2
78290;SDS011;67543;45.494;9.100;2023-05-20T06:21:12;1.60;;;0.70;;
78290;SDS011;67543;45.494;9.100;2023-05-20T06:23:37;3.80;;;0.73;;
78290;SDS011;67543;45.494;9.100;2023-05-20T06:26:02;0.98;;;0.60;;
78290;SDS011;67543;45.494;9.100;2023-05-20T06:28:28;2.13;;;0.50;;
78290;SDS011;67543;45.494;9.100;2023-05-20T06:30:54;1.00;;;0.40;;
78290;SDS011;67543;45.494;9.100;2023-05-20T06:33:23;1.20;;;0.60;;
78290;SDS011;67543;45.494;9.100;2023-05-20T06:35:50;3.35;;;0.60;;
78290;SDS011;67543;45.494;9.100;2023-05-20T06:38:19;1.30;;;0.80;;
78290;SDS011;67543;45.494;9.100;2023-05-20T06:40:45;1.77;;;0.45;;
78290;SDS011;67543;45.494;9.100;2023-05-20T06:43:11;2.00;;;0.82;;
78290;SDS011;67543;45.494;9.100;2023-05-20T06:45:36;2.42;;;0.73;;
78290;SDS011;67543;45.494;9.100;2023-05-20T06:48:02;0.95;;;0.55;;
78290;SDS011;67543;45.494;9.100;2023-05-20T06:50:27;1.05;;;0.68;;
78290;SDS011;67543;45.494;9.100;2023-05-20T06:52:53;5.90;;;1.10;;
78290;SDS011;67543;45.494;9.100;2023-05-20T06:55:18;2.42;;;0.60;;
78290;SDS011;67543;45.494;9.100;2023-05-20T06:57:44;1.00;;;0.50;;
78290;SDS011;67543;45.494;9.100;2023-05-20T07:00:09;0.88;;;0.50;;
78290;SDS011;67543;45.494;9.100;2023-05-20T07:02:36;1.50;;;0.70;;
78290;SDS011;67543;45.494;9.100;2023-05-20T07:05:01;1.27;;;0.68;;
78290;SDS011;67543;45.494;9.100;2023-05-20T07:07:26;2.72;;;0.93;;
78290;SDS011;67543;45.494;9.100;2023-05-20T07:09:53;2.95;;;0.95;;
78290;SDS011;67543;45.494;9.100;2023-05-20T07:12:18;1.73;;;0.77;;
78290;SDS011;67543;45.494;9.100;2023-05-20T07:14:44;3.95;;;0.90;;
78290;SDS011;67543;45.494;9.100;2023-05-20T07:17:10;2.67;;;1.20;;
78290;SDS011;67543;45.494;9.100;2023-05-20T07:19:35;4.25;;;1.20;;
78290;SDS011;67543;45.494;9.100;2023-05-20T07:22:00;1.67;;;0.95;;
78290;SDS011;67543;45.494;9.100;2023-05-20T07:24:26;1.65;;;0.80;;
78290;SDS011;67543;45.494;9.100;2023-05-20T07:26:51;1.95;;;0.93;;
78290;SDS011;67543;45.494;9.100;2023-05-20T07:29:16;3.20;;;1.52;;
78290;SDS011;67543;45.494;9.100;2023-05-20T07:31:42;2.67;;;0.98;;
78290;SDS011;67543;45.494;9.100;2023-05-20T07:34:07;2.08;;;1.13;;
78290;SDS011;67543;45.494;9.100;2023-05-20T07:36:33;1.88;;;0.88;;
78290;SDS011;67543;45.494;9.100;2023-05-20T07:38:58;1.20;;;0.63;;
78290;SDS011;67543;45.494;9.100;2023-05-20T07:41:23;3.50;;;1.08;;
78290;SDS011;67543;45.494;9.100;2023-05-20T07:43:49;2.17;;;0.80;;
78290;SDS011;67543;45.494;9.100;2023-05-20T07:46:14;1.05;;;0.60;;
78290;SDS011;67543;45.494;9.100;2023-05-20T07:48:40;2.55;;;1.10;;
78290;SDS011;67543;45.494;9.100;2023-05-20T07:51:06;1.60;;;0.65;;
78290;SDS011;67543;45.494;9.100;2023-05-20T07:53:31;1.95;;;1.20;;
78290;SDS011;67543;45.494;9.100;2023-05-20T07:55:57;2.15;;;1.02;;
78290;SDS011;67543;45.494;9.100;2023-05-20T07:58:23;1.00;;;0.60;;
78290;SDS011;67543;45.494;9.100;2023-05-20T08:00:48;2.38;;;0.95;;
78290;SDS011;67543;45.494;9.100;2023-05-20T08:03:14;1.38;;;0.60;;
78290;SDS011;67543;45.494;9.100;2023-05-20T08:05:42;1.13;;;0.90;;
78290;SDS011;67543;45.494;9.100;2023-05-20T08:08:07;1.27;;;0.82;;
78290;SDS011;67543;45.494;9.100;2023-05-20T08:10:34;0.90;;;0.60;;
78290;SDS011;67543;45.494;9.100;2023-05-20T08:13:00;3.92;;;1.10;;
78290;SDS011;67543;45.494;9.100;2023-05-20T08:15:25;1.20;;;1.00;;
78290;SDS011;67543;45.494;9.100;2023-05-20T08:17:51;1.83;;;1.10;;
78290;SDS011;67543;45.494;9.100;2023-05-20T08:20:16;1.75;;;1.00;;
78290;SDS011;67543;45.494;9.100;2023-05-20T08:22:42;35.95;;;7.72;;
78290;SDS011;67543;45.494;9.100;2023-05-20T08:25:08;5.90;;;2.25;;
78290;SDS011;67543;45.494;9.100;2023-05-20T08:27:34;2.30;;;1.23;;
78290;SDS011;67543;45.494;9.100;2023-05-20T08:30:01;2.08;;;1.08;;
78290;SDS011;67543;45.494;9.100;2023-05-20T08:32:26;2.10;;;1.05;;
78290;SDS011;67543;45.494;9.100;2023-05-20T08:34:51;1.33;;;0.80;;
78290;SDS011;67543;45.494;9.100;2023-05-20T08:37:17;5.35;;;1.00;;
78290;SDS011;67543;45.494;9.100;2023-05-20T08:39:43;1.95;;;1.10;;
78290;SDS011;67543;45.494;9.100;2023-05-20T08:42:10;2.15;;;0.88;;
78290;SDS011;67543;45.494;9.100;2023-05-20T08:44:37;1.48;;;0.90;;
78290;SDS011;67543;45.494;9.100;2023-05-20T08:47:03;1.98;;;0.90;;
78290;SDS011;67543;45.494;9.100;2023-05-20T08:49:30;1.92;;;0.93;;
78290;SDS011;67543;45.494;9.100;2023-05-20T08:51:56;2.33;;;0.90;;
78290;SDS011;67543;45.494;9.100;2023-05-20T08:54:21;2.95;;;1.15;;
78290;SDS011;67543;45.494;9.100;2023-05-20T08:56:48;3.25;;;0.93;;
78290;SDS011;67543;45.494;9.100;2023-05-20T08:59:13;2.90;;;1.67;;
78290;SDS011;67543;45.494;9.100;2023-05-20T09:01:42;4.07;;;1.25;;
78290;SDS011;67543;45.494;9.100;2023-05-20T09:04:08;4.97;;;2.00;;
78290;SDS011;67543;45.494;9.100;2023-05-20T09:06:44;5.05;;;1.60;;
78290;SDS011;67543;45.494;9.100;2023-05-20T09:09:11;4.15;;;2.33;;
78290;SDS011;67543;45.494;9.100;2023-05-20T09:11:37;3.63;;;3.25;;
78290;SDS011;67543;45.494;9.100;2023-05-20T09:14:03;4.05;;;3.42;;
78290;SDS011;67543;45.494;9.100;2023-05-20T09:16:29;4.40;;;3.43;;
78290;SDS011;67543;45.494;9.100;2023-05-20T09:18:54;6.95;;;3.85;;
78290;SDS011;67543;45.494;9.100;2023-05-20T09:21:24;6.15;;;3.53;;
78290;SDS011;67543;45.494;9.100;2023-05-20T09:23:53;4.07;;;2.80;;
78290;SDS011;67543;45.494;9.100;2023-05-20T09:26:21;3.45;;;2.97;;
78290;SDS011;67543;45.494;9.100;2023-05-20T09:28:47;4.45;;;2.20;;
78290;SDS011;67543;45.494;9.100;2023-05-20T09:31:13;3.47;;;1.73;;
78290;SDS011;67543;45.494;9.100;2023-05-20T09:33:39;3.20;;;1.73;;
78290;SDS011;67543;45.494;9.100;2023-05-20T09:36:08;4.82;;;1.77;;
78290;SDS011;67543;45.494;9.100;2023-05-20T09:38:36;3.00;;;1.80;;
78290;SDS011;67543;45.494;9.100;2023-05-20T09:41:06;2.67;;;1.38;;
78290;SDS011;67543;45.494;9.100;2023-05-20T09:43:36;2.85;;;1.30;;
78290;SDS011;67543;45.494;9.100;2023-05-20T09:46:03;4.43;;;1.98;;
78290;SDS011;67543;45.494;9.100;2023-05-20T09:48:29;2.58;;;1.08;;
78290;SDS011;67543;45.494;9.100;2023-05-20T09:50:55;4.53;;;1.40;;
78290;SDS011;67543;45.494;9.100;2023-05-20T09:53:21;2.58;;;1.60;;
78290;SDS011;67543;45.494;9.100;2023-05-20T09:55:50;2.85;;;1.70;;
78290;SDS011;67543;45.494;9.100;2023-05-20T09:58:16;3.53;;;1.85;;
78290;SDS011;67543;45.494;9.100;2023-05-20T10:00:43;7.15;;;1.60;;
78290;SDS011;67543;45.494;9.100;2023-05-20T10:03:08;3.42;;;1.73;;
78290;SDS011;67543;45.494;9.100;2023-05-20T10:05:38;4.20;;;1.80;;
78290;SDS011;67543;45.494;9.100;2023-05-20T10:11:01;2.13;;;1.30;;
78290;SDS011;67543;45.494;9.100;2023-05-20T10:21:56;4.38;;;1.60;;
78290;SDS011;67543;45.494;9.100;2023-05-20T10:24:28;3.88;;;1.80;;
78290;SDS011;67543;45.494;9.100;2023-05-20T10:26:56;2.60;;;1.33;;
78290;SDS011;67543;45.494;9.100;2023-05-20T10:29:22;2.97;;;1.60;;
78290;SDS011;67543;45.494;9.100;2023-05-20T10:31:48;3.70;;;1.40;;
78290;SDS011;67543;45.494;9.100;2023-05-20T10:34:15;2.65;;;1.65;;
78290;SDS011;67543;45.494;9.100;2023-05-20T10:37:05;2.65;;;1.40;;
78290;SDS011;67543;45.494;9.100;2023-05-20T10:39:30;4.40;;;3.35;;
78290;SDS011;67543;45.494;9.100;2023-05-20T10:42:06;2.35;;;1.70;;
78290;SDS011;67543;45.494;9.100;2023-05-20T10:44:45;3.08;;;1.90;;
78290;SDS011;67543;45.494;9.100;2023-05-20T10:47:11;2.45;;;1.73;;
78290;SDS011;67543;45.494;9.100;2023-05-20T10:49:44;4.32;;;1.70;;
78290;SDS011;67543;45.494;9.100;2023-05-20T10:52:12;3.92;;;1.98;;
78290;SDS011;67543;45.494;9.100;2023-05-20T10:54:42;2.78;;;1.88;;
78290;SDS011;67543;45.494;9.100;2023-05-20T10:57:10;4.07;;;2.03;;
78290;SDS011;67543;45.494;9.100;2023-05-20T10:59:36;3.83;;;2.28;;
78290;SDS011;67543;45.494;9.100;2023-05-20T11:02:01;4.10;;;2.10;;
78290;SDS011;67543;45.494;9.100;2023-05-20T11:04:27;3.45;;;2.15;;
78290;SDS011;67543;45.494;9.100;2023-05-20T11:06:53;2.75;;;1.92;;
78290;SDS011;67543;45.494;9.100;2023-05-20T11:09:19;3.25;;;2.05;;
78290;SDS011;67543;45.494;9.100;2023-05-20T11:11:45;3.35;;;2.00;;
78290;SDS011;67543;45.494;9.100;2023-05-20T11:14:11;4.80;;;2.42;;
78290;SDS011;67543;45.494;9.100;2023-05-20T11:16:38;3.53;;;2.15;;
78290;SDS011;67543;45.494;9.100;2023-05-20T11:19:07;4.38;;;1.85;;
78290;SDS011;67543;45.494;9.100;2023-05-20T11:21:33;3.88;;;1.52;;
78290;SDS011;67543;45.494;9.100;2023-05-20T11:23:58;8.30;;;4.65;;
78290;SDS011;67543;45.494;9.100;2023-05-20T11:26:24;3.25;;;1.90;;
78290;SDS011;67543;45.494;9.100;2023-05-20T11:28:49;2.92;;;1.60;;
78290;SDS011;67543;45.494;9.100;2023-05-20T11:31:15;3.53;;;2.25;;
78290;SDS011;67543;45.494;9.100;2023-05-20T11:33:42;2.83;;;1.58;;
78290;SDS011;67543;45.494;9.100;2023-05-20T11:36:08;4.65;;;1.88;;
78290;SDS011;67543;45.494;9.100;2023-05-20T11:38:33;2.88;;;1.40;;
78290;SDS011;67543;45.494;9.100;2023-05-20T11:40:59;2.22;;;1.40;;
78290;SDS011;67543;45.494;9.100;2023-05-20T11:43:24;3.03;;;1.70;;
78290;SDS011;67543;45.494;9.100;2023-05-20T11:45:53;2.45;;;1.50;;
78290;SDS011;67543;45.494;9.100;2023-05-20T11:48:20;2.30;;;1.52;;
78290;SDS011;67543;45.494;9.100;2023-05-20T11:50:46;3.17;;;1.80;;
78290;SDS011;67543;45.494;9.100;2023-05-20T11:53:16;4.20;;;1.70;;
78290;SDS011;67543;45.494;9.100;2023-05-20T11:58:18;2.80;;;1.83;;
78290;SDS011;67543;45.494;9.100;2023-05-20T12:00:44;3.50;;;2.75;;
78290;SDS011;67543;45.494;9.100;2023-05-20T12:03:10;9.70;;;5.22;;
78290;SDS011;67543;45.494;9.100;2023-05-20T12:05:35;3.38;;;2.20;;
78290;SDS011;67543;45.494;9.100;2023-05-20T12:08:01;2.60;;;1.77;;
78290;SDS011;67543;45.494;9.100;2023-05-20T12:10:27;4.25;;;2.03;;
78290;SDS011;67543;45.494;9.100;2023-05-20T12:12:53;3.35;;;2.63;;
78290;SDS011;67543;45.494;9.100;2023-05-20T12:15:18;4.20;;;1.90;;
78290;SDS011;67543;45.494;9.100;2023-05-20T12:17:45;4.30;;;2.42;;
78290;SDS011;67543;45.494;9.100;2023-05-20T12:20:13;4.50;;;2.08;;
78290;SDS011;67543;45.494;9.100;2023-05-20T12:22:39;3.45;;;2.13;;
78290;SDS011;67543;45.494;9.100;2023-05-20T12:25:05;4.05;;;2.20;;
78290;SDS011;67543;45.494;9.100;2023-05-20T12:27:30;5.57;;;2.30;;
78290;SDS011;67543;45.494;9.100;2023-05-20T12:29:57;3.40;;;2.00;;
78290;SDS011;67543;45.494;9.100;2023-05-20T12:32:23;2.83;;;2.08;;
78290;SDS011;67543;45.494;9.100;2023-05-20T12:34:48;3.10;;;2.35;;
78290;SDS011;67543;45.494;9.100;2023-05-20T12:37:14;3.22;;;2.10;;
78290;SDS011;67543;45.494;9.100;2023-05-20T12:39:39;4.90;;;2.63;;
78290;SDS011;67543;45.494;9.100;2023-05-20T12:42:04;5.93;;;2.20;;
78290;SDS011;67543;45.494;9.100;2023-05-20T12:44:30;4.20;;;2.40;;
78290;SDS011;67543;45.494;9.100;2023-05-20T12:46:55;3.65;;;2.42;;
78290;SDS011;67543;45.494;9.100;2023-05-20T12:49:20;4.28;;;2.60;;
78290;SDS011;67543;45.494;9.100;2023-05-20T12:51:46;4.00;;;2.28;;
78290;SDS011;67543;45.494;9.100;2023-05-20T12:54:11;3.70;;;2.38;;
78290;SDS011;67543;45.494;9.100;2023-05-20T12:56:36;4.18;;;2.50;;
78290;SDS011;67543;45.494;9.100;2023-05-20T12:59:02;2.97;;;2.05;;
78290;SDS011;67543;45.494;9.100;2023-05-20T13:01:27;3.20;;;1.52;;
78290;SDS011;67543;45.494;9.100;2023-05-20T13:03:52;3.33;;;1.60;;
78290;SDS011;67543;45.494;9.100;2023-05-20T13:06:19;2.05;;;1.20;;
78290;SDS011;67543;45.494;9.100;2023-05-20T13:08:44;3.58;;;1.73;;
78290;SDS011;67543;45.494;9.100;2023-05-20T13:11:10;3.15;;;1.83;;
78290;SDS011;67543;45.494;9.100;2023-05-20T13:13:35;2.00;;;1.30;;
78290;SDS011;67543;45.494;9.100;2023-05-20T13:16:01;2.70;;;2.08;;
78290;SDS011;67543;45.494;9.100;2023-05-20T13:18:26;1.98;;;1.55;;
78290;SDS011;67543;45.494;9.100;2023-05-20T13:20:52;2.95;;;1.20;;
78290;SDS011;67543;45.494;9.100;2023-05-20T13:23:17;2.33;;;1.02;;
78290;SDS011;67543;45.494;9.100;2023-05-20T13:25:42;4.60;;;1.50;;
78290;SDS011;67543;45.494;9.100;2023-05-20T13:28:08;1.55;;;1.10;;
78290;SDS011;67543;45.494;9.100;2023-05-20T13:30:34;2.03;;;1.40;;
78290;SDS011;67543;45.494;9.100;2023-05-20T13:32:59;3.20;;;1.45;;
78290;SDS011;67543;45.494;9.100;2023-05-20T13:35:25;3.08;;;1.50;;
78290;SDS011;67543;45.494;9.100;2023-05-20T13:37:50;2.63;;;1.33;;
78290;SDS011;67543;45.494;9.100;2023-05-20T13:40:16;1.90;;;1.10;;
78290;SDS011;67543;45.494;9.100;2023-05-20T13:42:41;6.07;;;2.70;;
78290;SDS011;67543;45.494;9.100;2023-05-20T13:45:08;2.95;;;1.80;;
78290;SDS011;67543;45.494;9.100;2023-05-20T13:47:33;3.47;;;1.70;;
78290;SDS011;67543;45.494;9.100;2023-05-20T13:49:59;2.42;;;1.13;;
78290;SDS011;67543;45.494;9.100;2023-05-20T13:52:26;2.63;;;2.03;;
78290;SDS011;67543;45.494;9.100;2023-05-20T13:54:52;3.60;;;1.80;;
78290;SDS011;67543;45.494;9.100;2023-05-20T13:57:17;4.07;;;1.48;;
78290;SDS011;67543;45.494;9.100;2023-05-20T13:59:42;4.88;;;1.40;;
78290;SDS011;67543;45.494;9.100;2023-05-20T14:02:08;2.20;;;1.33;;
78290;SDS011;67543;45.494;9.100;2023-05-20T14:04:33;4.95;;;2.45;;
78290;SDS011;67543;45.494;9.100;2023-05-20T14:07:06;2.67;;;1.73;;
78290;SDS011;67543;45.494;9.100;2023-05-20T14:09:31;3.67;;;1.45;;
78290;SDS011;67543;45.494;9.100;2023-05-20T14:11:57;2.70;;;1.73;;
78290;SDS011;67543;45.494;9.100;2023-05-20T14:14:22;7.50;;;1.80;;
78290;SDS011;67543;45.494;9.100;2023-05-20T14:16:47;4.03;;;1.40;;
78290;SDS011;67543;45.494;9.100;2023-05-20T14:19:13;3.40;;;1.60;;
78290;SDS011;67543;45.494;9.100;2023-05-20T14:21:38;4.10;;;1.88;;
78290;SDS011;67543;45.494;9.100;2023-05-20T14:24:04;4.72;;;2.13;;
78290;SDS011;67543;45.494;9.100;2023-05-20T14:26:30;3.65;;;1.83;;
78290;SDS011;67543;45.494;9.100;2023-05-20T14:28:55;3.40;;;2.13;;
78290;SDS011;67543;45.494;9.100;2023-05-20T14:31:21;4.35;;;1.80;;
78290;SDS011;67543;45.494;9.100;2023-05-20T14:33:46;5.30;;;1.77;;
78290;SDS011;67543;45.494;9.100;2023-05-20T14:36:12;3.38;;;1.80;;
78290;SDS011;67543;45.494;9.100;2023-05-20T14:38:37;2.90;;;1.58;;
78290;SDS011;67543;45.494;9.100;2023-05-20T14:41:03;2.08;;;1.40;;
78290;SDS011;67543;45.494;9.100;2023-05-20T14:43:28;2.97;;;1.60;;
78290;SDS011;67543;45.494;9.100;2023-05-20T14:45:56;2.72;;;1.75;;
78290;SDS011;67543;45.494;9.100;2023-05-20T14:48:21;2.85;;;1.63;;
78290;SDS011;67543;45.494;9.100;2023-05-20T14:50:46;2.10;;;1.70;;
78290;SDS011;67543;45.494;9.100;2023-05-20T14:53:12;4.28;;;1.65;;
78290;SDS011;67543;45.494;9.100;2023-05-20T14:55:37;3.47;;;1.53;;
78290;SDS011;67543;45.494;9.100;2023-05-20T14:58:02;2.92;;;1.67;;
78290;SDS011;67543;45.494;9.100;2023-05-20T15:00:28;3.13;;;1.55;;
78290;SDS011;67543;45.494;9.100;2023-05-20T15:02:53;2.53;;;1.50;;
78290;SDS011;67543;45.494;9.100;2023-05-20T15:05:18;2.72;;;1.65;;
78290;SDS011;67543;45.494;9.100;2023-05-20T15:07:44;3.78;;;2.00;;
78290;SDS011;67543;45.494;9.100;2023-05-20T15:10:09;3.50;;;1.55;;
78290;SDS011;67543;45.494;9.100;2023-05-20T15:12:34;3.92;;;1.92;;
78290;SDS011;67543;45.494;9.100;2023-05-20T15:15:00;3.80;;;2.80;;
78290;SDS011;67543;45.494;9.100;2023-05-20T15:17:25;2.65;;;1.70;;
78290;SDS011;67543;45.494;9.100;2023-05-20T15:19:50;3.83;;;1.98;;
78290;SDS011;67543;45.494;9.100;2023-05-20T15:22:16;2.75;;;1.65;;
78290;SDS011;67543;45.494;9.100;2023-05-20T15:24:41;2.75;;;1.75;;
78290;SDS011;67543;45.494;9.100;2023-05-20T15:27:06;5.25;;;2.03;;
78290;SDS011;67543;45.494;9.100;2023-05-20T15:29:32;4.85;;;1.95;;
78290;SDS011;67543;45.494;9.100;2023-05-20T15:31:57;3.10;;;1.50;;
78290;SDS011;67543;45.494;9.100;2023-05-20T15:34:22;4.53;;;2.03;;
78290;SDS011;67543;45.494;9.100;2023-05-20T15:36:48;6.03;;;2.05;;
78290;SDS011;67543;45.494;9.100;2023-05-20T15:39:13;2.80;;;1.88;;
78290;SDS011;67543;45.494;9.100;2023-05-20T15:41:38;4.03;;;2.17;;
78290;SDS011;67543;45.494;9.100;2023-05-20T15:44:06;2.92;;;2.08;;
78290;SDS011;67543;45.494;9.100;2023-05-20T15:46:31;3.67;;;2.22;;
78290;SDS011;67543;45.494;9.100;2023-05-20T15:48:57;3.22;;;2.42;;
78290;SDS011;67543;45.494;9.100;2023-05-20T15:51:22;5.75;;;2.92;;
78290;SDS011;67543;45.494;9.100;2023-05-20T15:53:48;4.20;;;3.20;;
78290;SDS011;67543;45.494;9.100;2023-05-20T15:56:13;3.97;;;2.90;;
78290;SDS011;67543;45.494;9.100;2023-05-20T15:58:38;5.15;;;3.08;;
78290;SDS011;67543;45.494;9.100;2023-05-20T16:01:04;6.25;;;3.40;;
78290;SDS011;67543;45.494;9.100;2023-05-20T16:03:30;5.50;;;2.95;;
78290;SDS011;67543;45.494;9.100;2023-05-20T16:05:56;7.10;;;3.47;;
78290;SDS011;67543;45.494;9.100;2023-05-20T16:08:21;6.55;;;3.78;;
78290;SDS011;67543;45.494;9.100;2023-05-20T16:10:48;4.20;;;2.88;;
78290;SDS011;67543;45.494;9.100;2023-05-20T16:13:14;5.93;;;3.50;;
78290;SDS011;67543;45.494;9.100;2023-05-20T16:15:39;4.55;;;3.13;;
78290;SDS011;67543;45.494;9.100;2023-05-20T16:18:04;6.32;;;3.70;;
78290;SDS011;67543;45.494;9.100;2023-05-20T16:20:30;5.47;;;3.08;;
78290;SDS011;67543;45.494;9.100;2023-05-20T16:22:55;5.57;;;3.45;;
78290;SDS011;67543;45.494;9.100;2023-05-20T16:25:20;4.75;;;3.28;;
78290;SDS011;67543;45.494;9.100;2023-05-20T16:27:46;5.38;;;3.53;;
78290;SDS011;67543;45.494;9.100;2023-05-20T16:30:11;6.05;;;3.40;;
78290;SDS011;67543;45.494;9.100;2023-05-20T16:32:37;9.90;;;4.10;;
78290;SDS011;67543;45.494;9.100;2023-05-20T16:35:03;5.45;;;3.42;;
78290;SDS011;67543;45.494;9.100;2023-05-20T16:37:29;5.72;;;3.80;;
78290;SDS011;67543;45.494;9.100;2023-05-20T16:39:55;5.97;;;3.55;;
78290;SDS011;67543;45.494;9.100;2023-05-20T16:42:20;5.50;;;3.33;;
78290;SDS011;67543;45.494;9.100;2023-05-20T16:44:48;6.25;;;3.58;;
78290;SDS011;67543;45.494;9.100;2023-05-20T16:47:14;6.53;;;3.05;;
78290;SDS011;67543;45.494;9.100;2023-05-20T16:49:40;6.38;;;3.53;;
78290;SDS011;67543;45.494;9.100;2023-05-20T16:52:05;5.88;;;3.65;;
78290;SDS011;67543;45.494;9.100;2023-05-20T16:54:31;7.30;;;3.67;;
78290;SDS011;67543;45.494;9.100;2023-05-20T16:57:00;4.40;;;2.85;;
78290;SDS011;67543;45.494;9.100;2023-05-20T16:59:27;6.38;;;4.22;;
78290;SDS011;67543;45.494;9.100;2023-05-20T17:01:54;6.82;;;5.00;;
78290;SDS011;67543;45.494;9.100;2023-05-20T17:04:19;7.45;;;4.18;;
78290;SDS011;67543;45.494;9.100;2023-05-20T17:06:45;7.80;;;4.03;;
78290;SDS011;67543;45.494;9.100;2023-05-20T17:09:13;6.78;;;4.28;;
78290;SDS011;67543;45.494;9.100;2023-05-20T17:11:39;7.25;;;4.10;;
78290;SDS011;67543;45.494;9.100;2023-05-20T17:14:05;7.55;;;3.63;;
78290;SDS011;67543;45.494;9.100;2023-05-20T17:16:30;7.80;;;4.10;;
78290;SDS011;67543;45.494;9.100;2023-05-20T17:18:56;4.80;;;3.28;;
78290;SDS011;67543;45.494;9.100;2023-05-20T17:21:22;5.07;;;3.78;;
78290;SDS011;67543;45.494;9.100;2023-05-20T17:23:47;5.80;;;3.88;;
78290;SDS011;67543;45.494;9.100;2023-05-20T17:26:13;6.22;;;3.65;;
78290;SDS011;67543;45.494;9.100;2023-05-20T17:28:39;12.07;;;4.60;;
78290;SDS011;67543;45.494;9.100;2023-05-20T17:31:04;8.63;;;3.90;;
78290;SDS011;67543;45.494;9.100;2023-05-20T17:33:30;5.15;;;3.30;;
78290;SDS011;67543;45.494;9.100;2023-05-20T17:35:56;6.57;;;2.70;;
78290;SDS011;67543;45.494;9.100;2023-05-20T17:38:21;4.55;;;3.33;;
78290;SDS011;67543;45.494;9.100;2023-05-20T17:40:50;4.28;;;2.83;;
78290;SDS011;67543;45.494;9.100;2023-05-20T17:43:15;7.05;;;3.83;;
78290;SDS011;67543;45.494;9.100;2023-05-20T17:45:40;4.93;;;3.40;;
78290;SDS011;67543;45.494;9.100;2023-05-20T17:48:06;5.55;;;3.70;;
78290;SDS011;67543;45.494;9.100;2023-05-20T17:50:31;4.65;;;3.17;;
78290;SDS011;67543;45.494;9.100;2023-05-20T17:52:58;6.50;;;3.00;;
78290;SDS011;67543;45.494;9.100;2023-05-20T17:55:23;4.97;;;3.00;;
78290;SDS011;67543;45.494;9.100;2023-05-20T17:57:49;4.80;;;3.00;;
78290;SDS011;67543;45.494;9.100;2023-05-20T18:00:14;5.25;;;2.63;;
78290;SDS011;67543;45.494;9.100;2023-05-20T18:02:42;3.53;;;2.67;;
78290;SDS011;67543;45.494;9.100;2023-05-20T18:05:12;4.47;;;2.50;;
78290;SDS011;67543;45.494;9.100;2023-05-20T18:07:37;5.63;;;3.20;;
78290;SDS011;67543;45.494;9.100;2023-05-20T18:10:03;4.53;;;2.45;;
78290;SDS011;67543;45.494;9.100;2023-05-20T18:12:29;6.05;;;3.38;;
78290;SDS011;67543;45.494;9.100;2023-05-20T18:14:55;4.88;;;3.17;;
78290;SDS011;67543;45.494;9.100;2023-05-20T18:17:20;4.60;;;2.83;;
78290;SDS011;67543;45.494;9.100;2023-05-20T18:19:45;3.80;;;2.38;;
78290;SDS011;67543;45.494;9.100;2023-05-20T18:22:11;3.85;;;2.65;;
78290;SDS011;67543;45.494;9.100;2023-05-20T18:24:36;4.20;;;2.87;;
78290;SDS011;67543;45.494;9.100;2023-05-20T18:27:01;4.95;;;3.10;;
78290;SDS011;67543;45.494;9.100;2023-05-20T18:29:27;4.50;;;2.03;;
78290;SDS011;67543;45.494;9.100;2023-05-20T18:31:52;4.35;;;2.65;;
78290;SDS011;67543;45.494;9.100;2023-05-20T18:34:17;4.38;;;2.88;;
78290;SDS011;67543;45.494;9.100;2023-05-20T18:36:43;4.65;;;2.92;;
78290;SDS011;67543;45.494;9.100;2023-05-20T18:39:08;5.20;;;2.85;;
78290;SDS011;67543;45.494;9.100;2023-05-20T18:41:34;3.58;;;2.55;;
78290;SDS011;67543;45.494;9.100;2023-05-20T18:43:59;4.32;;;2.65;;
78290;SDS011;67543;45.494;9.100;2023-05-20T18:46:25;4.45;;;3.15;;
78290;SDS011;67543;45.494;9.100;2023-05-20T18:48:50;6.78;;;3.40;;
78290;SDS011;67543;45.494;9.100;2023-05-20T18:51:16;5.20;;;3.17;;
78290;SDS011;67543;45.494;9.100;2023-05-20T18:53:41;6.25;;;3.25;;
78290;SDS011;67543;45.494;9.100;2023-05-20T18:56:06;6.10;;;3.47;;
78290;SDS011;67543;45.494;9.100;2023-05-20T18:58:33;6.00;;;3.58;;
78290;SDS011;67543;45.494;9.100;2023-05-20T19:00:58;6.03;;;3.45;;
78290;SDS011;67543;45.494;9.100;2023-05-20T19:03:23;5.35;;;4.05;;
78290;SDS011;67543;45.494;9.100;2023-05-20T19:05:49;5.70;;;3.72;;
78290;SDS011;67543;45.494;9.100;2023-05-20T19:08:15;7.28;;;3.30;;
78290;SDS011;67543;45.494;9.100;2023-05-20T19:10:40;5.18;;;3.70;;
78290;SDS011;67543;45.494;9.100;2023-05-20T19:13:06;4.25;;;3.05;;
78290;SDS011;67543;45.494;9.100;2023-05-20T19:15:31;6.28;;;3.65;;
78290;SDS011;67543;45.494;9.100;2023-05-20T19:17:57;6.40;;;3.55;;
78290;SDS011;67543;45.494;9.100;2023-05-20T19:20:23;5.40;;;3.72;;
78290;SDS011;67543;45.494;9.100;2023-05-20T19:22:48;5.82;;;4.15;;
78290;SDS011;67543;45.494;9.100;2023-05-20T19:25:14;9.32;;;4.15;;
78290;SDS011;67543;45.494;9.100;2023-05-20T19:27:39;6.63;;;4.05;;
78290;SDS011;67543;45.494;9.100;2023-05-20T19:30:05;5.85;;;4.15;;
78290;SDS011;67543;45.494;9.100;2023-05-20T19:32:31;6.72;;;3.78;;
78290;SDS011;67543;45.494;9.100;2023-05-20T19:34:56;4.82;;;3.72;;
78290;SDS011;67543;45.494;9.100;2023-05-20T19:37:21;6.35;;;3.80;;
78290;SDS011;67543;45.494;9.100;2023-05-20T19:39:47;5.82;;;4.43;;
78290;SDS011;67543;45.494;9.100;2023-05-20T19:42:12;6.13;;;4.30;;
78290;SDS011;67543;45.494;9.100;2023-05-20T19:44:37;5.10;;;3.63;;
78290;SDS011;67543;45.494;9.100;2023-05-20T19:47:03;7.20;;;3.85;;
78290;SDS011;67543;45.494;9.100;2023-05-20T19:49:30;5.80;;;4.22;;
78290;SDS011;67543;45.494;9.100;2023-05-20T19:51:57;6.38;;;4.00;;
78290;SDS011;67543;45.494;9.100;2023-05-20T19:54:22;6.32;;;4.07;;
78290;SDS011;67543;45.494;9.100;2023-05-20T19:56:47;7.78;;;4.50;;
78290;SDS011;67543;45.494;9.100;2023-05-20T19:59:13;6.30;;;4.55;;
78290;SDS011;67543;45.494;9.100;2023-05-20T20:01:38;5.65;;;4.40;;
78290;SDS011;67543;45.494;9.100;2023-05-20T20:04:04;8.55;;;4.75;;
78290;SDS011;67543;45.494;9.100;2023-05-20T20:06:29;9.88;;;4.15;;
78290;SDS011;67543;45.494;9.100;2023-05-20T20:08:55;8.85;;;4.47;;
78290;SDS011;67543;45.494;9.100;2023-05-20T20:11:21;8.45;;;4.70;;
78290;SDS011;67543;45.494;9.100;2023-05-20T20:13:47;7.97;;;4.90;;
78290;SDS011;67543;45.494;9.100;2023-05-20T20:16:12;7.93;;;4.25;;
78290;SDS011;67543;45.494;9.100;2023-05-20T20:18:39;6.13;;;4.80;;
78290;SDS011;67543;45.494;9.100;2023-05-20T20:21:05;5.57;;;3.63;;
78290;SDS011;67543;45.494;9.100;2023-05-20T20:23:33;7.35;;;4.93;;
78290;SDS011;67543;45.494;9.100;2023-05-20T20:26:01;6.95;;;4.57;;
78290;SDS011;67543;45.494;9.100;2023-05-20T20:28:26;10.38;;;5.10;;
78290;SDS011;67543;45.494;9.100;2023-05-20T20:30:52;5.63;;;3.90;;
78290;SDS011;67543;45.494;9.100;2023-05-20T20:33:17;8.32;;;4.70;;
78290;SDS011;67543;45.494;9.100;2023-05-20T20:35:43;8.38;;;5.47;;
78290;SDS011;67543;45.494;9.100;2023-05-20T20:38:09;7.13;;;5.07;;
78290;SDS011;67543;45.494;9.100;2023-05-20T20:40:37;6.82;;;4.75;;
78290;SDS011;67543;45.494;9.100;2023-05-20T20:43:05;8.90;;;4.95;;
78290;SDS011;67543;45.494;9.100;2023-05-20T20:45:32;6.65;;;4.47;;
78290;SDS011;67543;45.494;9.100;2023-05-20T20:47:59;8.98;;;5.03;;
78290;SDS011;67543;45.494;9.100;2023-05-20T20:50:25;6.07;;;4.32;;
78290;SDS011;67543;45.494;9.100;2023-05-20T20:52:51;6.97;;;4.80;;
78290;SDS011;67543;45.494;9.100;2023-05-20T20:55:16;8.23;;;5.00;;
78290;SDS011;67543;45.494;9.100;2023-05-20T20:57:42;6.68;;;4.57;;
78290;SDS011;67543;45.494;9.100;2023-05-20T21:00:08;9.02;;;5.13;;
78290;SDS011;67543;45.494;9.100;2023-05-20T21:02:41;8.98;;;4.55;;
78290;SDS011;67543;45.494;9.100;2023-05-20T21:05:07;8.55;;;5.75;;
78290;SDS011;67543;45.494;9.100;2023-05-20T21:07:33;7.03;;;5.18;;
78290;SDS011;67543;45.494;9.100;2023-05-20T21:10:02;7.97;;;5.60;;
78290;SDS011;67543;45.494;9.100;2023-05-20T21:12:27;10.60;;;4.78;;
78290;SDS011;67543;45.494;9.100;2023-05-20T21:14:53;7.68;;;5.40;;